Time;durP1;ratioP1;P1;durP2;ratioP2;P2;SDS_P1;SDS_P2;PMS_P1;PMS_P2;Temp;Humidity;BMP_temperature;BMP_pressure;BME280_temperature;BME280_humidity;BME280_pressure;Samples;Min_cycle;Max_cycle;Signal;HPM_P1;HPM_P2
2023/09/25 19:06:14;;;;;;;1.70;1.00;;;16.20;99.90;;;;;;5108596;28;20267;-66
2023/09/25 19:09:05;;;;;;;7.45;1.33;;;16.10;99.90;;;;;;5109853;27;20457;-65
2023/09/25 19:11:31;;;;;;;1.63;1.17;;;16.10;99.90;;;;;;5051733;27;20057;-65
2023/09/25 19:13:57;;;;;;;2.75;1.33;;;16.00;99.90;;;;;;5041224;28;20135;-64
2023/09/25 19:16:23;;;;;;;3.47;1.27;;;16.10;99.90;;;;;;5043783;28;20033;-64
2023/09/25 19:18:48;;;;;;;1.38;1.27;;;16.10;99.90;;;;;;5057902;28;20399;-65
2023/09/25 19:21:14;;;;;;;2.05;1.33;;;16.10;99.90;;;;;;5044052;28;20095;-65
2023/09/25 19:23:40;;;;;;;3.63;1.58;;;16.10;99.90;;;;;;5042047;28;20041;-65
2023/09/25 19:26:06;;;;;;;5.55;1.30;;;16.10;99.90;;;;;;5044281;28;20826;-65
2023/09/25 19:28:32;;;;;;;6.25;1.33;;;16.20;99.90;;;;;;5056228;28;20108;-65
2023/09/25 19:30:58;;;;;;;2.90;1.35;;;16.10;99.90;;;;;;5049026;28;20136;-65
2023/09/25 19:33:26;;;;;;;1.60;1.50;;;16.10;99.90;;;;;;5053735;28;20139;-64
2023/09/25 19:35:52;;;;;;;1.77;1.30;;;16.20;99.90;;;;;;5045614;28;20053;-65
2023/09/25 19:38:19;;;;;;;4.38;1.45;;;16.20;99.90;;;;;;5054066;28;20055;-65
2023/09/25 19:40:48;;;;;;;2.67;1.20;;;16.20;99.90;;;;;;5058138;28;20437;-64
2023/09/25 19:43:14;;;;;;;3.05;1.08;;;16.20;99.90;;;;;;5053496;28;20341;-65
2023/09/25 19:45:39;;;;;;;2.58;1.13;;;16.20;99.90;;;;;;5050399;28;20124;-65
2023/09/25 19:48:05;;;;;;;2.90;1.27;;;16.20;99.90;;;;;;5047633;28;20495;-65
2023/09/25 19:50:31;;;;;;;2.13;1.42;;;16.30;99.90;;;;;;5059156;28;20380;-65
2023/09/25 19:52:57;;;;;;;2.92;1.38;;;16.20;99.90;;;;;;5055654;28;20090;-65
2023/09/25 19:55:24;;;;;;;1.30;1.20;;;16.30;99.90;;;;;;5051307;28;20418;-65
2023/09/25 19:57:49;;;;;;;1.50;1.20;;;16.20;99.90;;;;;;5046547;28;20359;-64
2023/09/25 20:00:15;;;;;;;1.75;1.40;;;16.30;99.90;;;;;;5059030;28;20560;-65
2023/09/25 20:02:41;;;;;;;2.35;1.27;;;16.30;99.90;;;;;;5050158;28;20458;-65
2023/09/25 20:05:07;;;;;;;2.03;1.30;;;16.30;99.90;;;;;;5053512;28;20545;-64
2023/09/25 20:07:33;;;;;;;1.30;1.17;;;16.30;99.90;;;;;;5050724;28;20057;-65
2023/09/25 20:09:59;;;;;;;1.75;1.00;;;16.30;99.90;;;;;;5057454;28;20153;-64
2023/09/25 20:12:24;;;;;;;1.05;0.95;;;16.20;99.90;;;;;;5061894;28;20050;-65
2023/09/25 20:14:53;;;;;;;1.33;1.23;;;16.20;99.90;;;;;;5061734;28;20052;-65
2023/09/25 20:17:19;;;;;;;1.45;1.35;;;16.10;99.90;;;;;;5062046;28;20153;-65
2023/09/25 20:19:45;;;;;;;1.55;1.35;;;16.10;99.90;;;;;;5044117;28;20099;-64
2023/09/25 20:22:10;;;;;;;1.25;1.13;;;16.20;99.90;;;;;;5040712;28;20049;-64
2023/09/25 20:24:36;;;;;;;1.67;1.58;;;16.10;99.90;;;;;;5046564;28;20049;-64
2023/09/25 20:27:02;;;;;;;3.58;1.20;;;16.10;99.90;;;;;;5049827;28;20059;-65
2023/09/25 20:29:28;;;;;;;1.45;1.23;;;16.10;99.90;;;;;;5048929;28;20384;-65
2023/09/25 20:31:53;;;;;;;1.35;1.13;;;16.00;99.90;;;;;;5041833;28;20044;-64
2023/09/25 20:34:19;;;;;;;1.30;1.20;;;16.10;99.90;;;;;;5042947;28;20495;-65
2023/09/25 20:36:45;;;;;;;2.10;1.65;;;16.10;99.90;;;;;;5033724;28;20564;-65
2023/09/25 20:39:11;;;;;;;1.30;1.30;;;16.10;99.90;;;;;;5065307;28;20407;-64
2023/09/25 20:41:36;;;;;;;1.60;1.50;;;16.10;99.90;;;;;;5046305;28;20044;-65
2023/09/25 20:44:02;;;;;;;2.65;1.80;;;16.00;99.90;;;;;;5049860;28;20060;-65
2023/09/25 20:46:28;;;;;;;1.70;1.60;;;16.00;99.90;;;;;;5047229;28;20052;-65
2023/09/25 20:48:54;;;;;;;4.32;1.60;;;16.00;99.90;;;;;;5039646;28;20037;-65
2023/09/25 20:51:20;;;;;;;4.30;1.70;;;16.10;99.90;;;;;;5032124;28;20042;-64
2023/09/25 20:53:46;;;;;;;3.55;1.85;;;16.00;99.90;;;;;;5027072;28;20041;-64
2023/09/25 20:56:12;;;;;;;2.85;1.67;;;16.00;99.90;;;;;;5029399;28;20053;-65
2023/09/25 20:58:38;;;;;;;2.22;1.73;;;16.00;99.90;;;;;;5027342;28;20038;-65
2023/09/25 21:01:03;;;;;;;4.18;1.55;;;16.00;99.90;;;;;;5031501;28;20636;-65
2023/09/25 21:03:29;;;;;;;3.53;2.15;;;16.00;99.90;;;;;;5030817;28;20037;-64
2023/09/25 21:05:55;;;;;;;2.47;1.80;;;16.00;99.90;;;;;;5028333;28;20057;-65
2023/09/25 21:08:20;;;;;;;5.43;1.75;;;16.00;99.90;;;;;;5026751;28;20065;-64
2023/09/25 21:10:46;;;;;;;1.98;1.77;;;16.00;99.90;;;;;;5041436;28;20154;-65
2023/09/25 21:13:12;;;;;;;2.10;1.90;;;16.00;99.90;;;;;;5043752;28;20144;-64
2023/09/25 21:15:38;;;;;;;1.95;1.85;;;16.00;99.90;;;;;;5043121;28;20045;-65
2023/09/25 21:18:04;;;;;;;2.28;2.03;;;16.00;99.90;;;;;;5058038;28;20216;-65
2023/09/25 21:20:29;;;;;;;2.10;1.90;;;16.00;99.90;;;;;;5041181;28;20041;-65
2023/09/25 21:22:55;;;;;;;3.95;1.80;;;15.90;99.90;;;;;;5035035;28;20060;-65
2023/09/25 21:25:21;;;;;;;1.80;1.70;;;16.00;99.90;;;;;;5040317;28;20045;-65
2023/09/25 21:27:46;;;;;;;2.92;2.28;;;16.00;99.90;;;;;;5037223;28;20315;-64
2023/09/25 21:30:12;;;;;;;3.28;1.98;;;16.00;99.90;;;;;;5038021;28;20038;-64
2023/09/25 21:32:38;;;;;;;2.10;1.70;;;15.90;99.90;;;;;;5037229;28;20045;-65
2023/09/25 21:35:04;;;;;;;2.13;1.65;;;15.90;99.90;;;;;;5029404;28;20496;-65
2023/09/25 21:37:30;;;;;;;4.25;2.25;;;15.90;99.90;;;;;;5041660;28;20041;-65
2023/09/25 21:39:56;;;;;;;2.30;1.70;;;15.90;99.90;;;;;;5020387;28;20068;-65
2023/09/25 21:42:23;;;;;;;1.70;1.60;;;15.90;99.90;;;;;;5038479;28;20037;-64
2023/09/25 21:44:49;;;;;;;2.70;1.80;;;15.90;99.90;;;;;;5036375;28;20068;-65
2023/09/25 21:47:16;;;;;;;3.05;1.42;;;15.90;99.90;;;;;;5058773;28;20037;-65
2023/09/25 21:49:42;;;;;;;2.70;1.63;;;15.90;99.90;;;;;;5042674;28;20076;-65
2023/09/25 21:52:08;;;;;;;2.92;1.65;;;15.90;99.90;;;;;;5028735;28;20038;-65
2023/09/25 21:54:33;;;;;;;3.33;1.80;;;15.90;99.90;;;;;;5033000;28;20045;-65
2023/09/25 21:56:59;;;;;;;2.90;2.15;;;15.90;99.90;;;;;;5029695;28;20567;-65
2023/09/25 21:59:25;;;;;;;2.05;1.77;;;15.90;99.90;;;;;;5039106;28;20042;-65
2023/09/25 22:01:51;;;;;;;3.70;2.22;;;15.90;99.90;;;;;;5040639;28;20045;-65
2023/09/25 22:04:17;;;;;;;1.98;1.88;;;15.90;99.90;;;;;;5033756;28;20044;-65
2023/09/25 22:06:42;;;;;;;4.15;1.88;;;15.90;99.90;;;;;;5033139;28;20119;-64
2023/09/25 22:09:10;;;;;;;2.67;1.70;;;15.90;99.90;;;;;;5043338;28;20408;-64
2023/09/25 22:11:37;;;;;;;1.70;1.58;;;15.90;99.90;;;;;;5036844;28;20415;-64
2023/09/25 22:14:03;;;;;;;2.75;1.83;;;15.90;99.90;;;;;;5040308;28;20037;-63
2023/09/25 22:16:31;;;;;;;3.28;1.70;;;15.80;99.90;;;;;;5039088;28;20048;-64
2023/09/25 22:18:57;;;;;;;2.03;1.80;;;15.80;99.90;;;;;;5023802;28;20112;-63
2023/09/25 22:21:23;;;;;;;4.50;2.20;;;15.80;99.90;;;;;;5026836;28;20116;-63
2023/09/25 22:23:49;;;;;;;2.97;1.50;;;15.80;99.90;;;;;;5035229;28;20495;-63
2023/09/25 22:26:15;;;;;;;3.00;1.75;;;15.80;99.90;;;;;;5028311;28;20087;-63
2023/09/25 22:28:42;;;;;;;1.80;1.70;;;15.80;99.90;;;;;;5030361;28;20128;-64
2023/09/25 22:31:16;;;;;;;2.63;1.88;;;15.80;99.90;;;;;;5034780;28;20049;-63
2023/09/25 22:33:43;;;;;;;2.03;1.90;;;15.80;99.90;;;;;;5029632;28;20045;-63
2023/09/25 22:36:09;;;;;;;2.95;1.88;;;15.80;99.90;;;;;;5034156;28;20033;-63
2023/09/25 22:38:36;;;;;;;2.67;1.88;;;15.80;99.90;;;;;;5035809;28;20036;-64
2023/09/25 22:41:02;;;;;;;4.18;2.22;;;15.70;99.90;;;;;;5035185;28;20686;-63
2023/09/25 22:43:28;;;;;;;5.32;2.05;;;15.70;99.90;;;;;;5029487;28;20106;-63
2023/09/25 22:45:54;;;;;;;3.25;2.50;;;15.70;99.90;;;;;;5030360;28;20446;-64
2023/09/25 22:48:19;;;;;;;3.03;1.88;;;15.70;99.90;;;;;;5032285;28;20049;-63
2023/09/25 22:50:45;;;;;;;2.55;1.85;;;15.70;99.90;;;;;;5030508;28;20064;-63
2023/09/25 22:53:11;;;;;;;3.38;2.15;;;15.70;99.90;;;;;;5033836;28;20051;-63
2023/09/25 22:55:36;;;;;;;2.85;1.88;;;15.70;99.90;;;;;;5029274;28;20041;-63
2023/09/25 22:58:04;;;;;;;2.00;1.90;;;15.70;99.90;;;;;;5031979;28;20048;-63
2023/09/25 23:03:52;;;;;;;2.50;2.30;;;15.70;99.90;;;;;;5029766;28;20117;-63
2023/09/25 23:06:18;;;;;;;3.95;2.08;;;15.70;99.90;;;;;;5029761;28;20497;-63
2023/09/25 23:08:44;;;;;;;4.13;2.10;;;15.70;99.90;;;;;;5031048;28;20049;-63
2023/09/25 23:11:10;;;;;;;2.38;2.20;;;15.70;99.90;;;;;;5044685;28;20088;-64
2023/09/25 23:13:36;;;;;;;2.90;2.10;;;15.70;99.90;;;;;;5043580;28;20563;-63
2023/09/25 23:16:01;;;;;;;2.13;2.03;;;15.70;99.90;;;;;;5045131;28;20053;-63
2023/09/25 23:21:52;;;;;;;7.22;2.05;;;15.70;99.90;;;;;;5033192;28;20034;-63
2023/09/25 23:24:17;;;;;;;3.15;2.10;;;15.70;99.90;;;;;;5047074;28;20124;-63
2023/09/25 23:26:43;;;;;;;5.93;2.55;;;15.70;99.90;;;;;;5046350;28;20554;-64
2023/09/25 23:29:09;;;;;;;3.40;2.00;;;15.70;99.90;;;;;;5046332;28;20056;-63
2023/09/25 23:31:34;;;;;;;2.05;1.77;;;15.60;99.90;;;;;;5043835;28;20384;-64
2023/09/25 23:34:00;;;;;;;2.25;2.05;;;15.70;99.90;;;;;;5035762;28;20084;-63
2023/09/25 23:36:26;;;;;;;3.30;2.05;;;15.60;99.90;;;;;;5045757;28;20376;-63
2023/09/25 23:38:52;;;;;;;1.98;1.80;;;15.60;99.90;;;;;;5045828;28;20056;-63
2023/09/25 23:41:18;;;;;;;2.97;2.08;;;15.60;99.90;;;;;;5045048;28;20048;-63
2023/09/25 23:43:47;;;;;;;2.90;1.77;;;15.60;99.90;;;;;;5046062;28;20124;-63
2023/09/25 23:46:13;;;;;;;3.50;2.20;;;15.60;99.90;;;;;;5061714;28;20524;-63
2023/09/25 23:48:40;;;;;;;3.40;2.17;;;15.60;99.90;;;;;;5045177;28;20159;-63
2023/09/25 23:51:06;;;;;;;2.10;1.92;;;15.60;99.90;;;;;;5042369;28;20403;-63
2023/09/25 23:53:33;;;;;;;2.35;2.15;;;15.50;99.90;;;;;;5047078;28;20076;-63
2023/09/25 23:56:06;;;;;;;4.35;2.28;;;15.50;99.90;;;;;;5049452;28;20048;-63
